Time;durP1;ratioP1;P1;durP2;ratioP2;P2;SDS_P1;SDS_P2;PMS_P1;PMS_P2;Temp;Humidity;BMP_temperature;BMP_pressure;BME280_temperature;BME280_humidity;BME280_pressure;Samples;Min_cycle;Max_cycle;Signal;HPM_P1;HPM_P2
2021/03/02 00:01:03;;;;;;;18.20;12.05;;;;;;;;;;5106858;28;20032;-86
2021/03/02 00:03:30;;;;;;;19.42;12.70;;;;;;;;;;5105718;28;20028;-87
2021/03/02 00:05:56;;;;;;;19.05;13.15;;;;;;;;;;5104225;28;20032;-87
2021/03/02 00:08:22;;;;;;;18.13;12.18;;;;;;;;;;5104336;28;20036;-86
2021/03/02 00:10:48;;;;;;;19.15;12.35;;;;;;;;;;5104393;28;20059;-87
2021/03/02 00:13:15;;;;;;;18.45;12.00;;;;;;;;;;5104675;28;20032;-87
2021/03/02 00:15:41;;;;;;;18.02;12.38;;;;;;;;;;5104556;28;20019;-88
2021/03/02 00:18:08;;;;;;;22.13;12.70;;;;;;;;;;5087694;28;20039;-86
2021/03/02 00:20:36;;;;;;;18.13;12.52;;;;;;;;;;5101499;28;20036;-87
2021/03/02 00:23:15;;;;;;;17.37;11.90;;;;;;;;;;5085293;28;20029;-87
2021/03/02 00:25:44;;;;;;;20.15;13.02;;;;;;;;;;5100719;28;20028;-86
2021/03/02 00:28:10;;;;;;;18.83;12.63;;;;;;;;;;5085563;28;20043;-86
2021/03/02 00:30:37;;;;;;;18.13;12.32;;;;;;;;;;5089028;28;20037;-86
2021/03/02 00:33:07;;;;;;;23.70;12.60;;;;;;;;;;5089831;28;20100;-86
2021/03/02 00:35:34;;;;;;;19.45;12.18;;;;;;;;;;5079411;28;20036;-88
2021/03/02 00:38:00;;;;;;;18.30;12.32;;;;;;;;;;5094875;28;20024;-88
2021/03/02 00:40:26;;;;;;;18.08;12.55;;;;;;;;;;5099309;28;20527;-88
2021/03/02 00:42:52;;;;;;;17.48;12.10;;;;;;;;;;5098630;28;20324;-88
2021/03/02 00:45:22;;;;;;;17.83;13.60;;;;;;;;;;5096404;28;20059;-89
2021/03/02 00:47:52;;;;;;;16.70;12.65;;;;;;;;;;5081344;28;20038;-88
2021/03/02 00:50:18;;;;;;;19.95;13.10;;;;;;;;;;5097280;28;20031;-88
2021/03/02 00:52:44;;;;;;;16.08;10.48;;;;;;;;;;5097504;28;20055;-88
2021/03/02 00:55:11;;;;;;;19.65;13.68;;;;;;;;;;5075722;28;20024;-89
2021/03/02 00:57:37;;;;;;;19.65;12.52;;;;;;;;;;5096039;28;20047;-88
2021/03/02 01:00:04;;;;;;;17.05;12.07;;;;;;;;;;5097469;28;20036;-88
2021/03/02 01:02:30;;;;;;;15.90;11.23;;;;;;;;;;5098638;28;20101;-87
2021/03/02 01:04:57;;;;;;;18.65;12.32;;;;;;;;;;5083395;28;20035;-87
2021/03/02 01:07:23;;;;;;;19.60;12.60;;;;;;;;;;5081439;28;20028;-88
2021/03/02 01:09:49;;;;;;;16.83;11.25;;;;;;;;;;5080173;28;20074;-91
2021/03/02 01:12:15;;;;;;;17.98;12.40;;;;;;;;;;5080374;28;20031;-89
2021/03/02 01:14:41;;;;;;;17.55;12.10;;;;;;;;;;5079622;28;20028;-88
2021/03/02 01:17:07;;;;;;;16.40;11.07;;;;;;;;;;5097321;28;20035;-89
2021/03/02 01:19:34;;;;;;;15.85;11.32;;;;;;;;;;5079634;28;20035;-88
2021/03/02 01:22:00;;;;;;;15.63;12.20;;;;;;;;;;5080170;28;20359;-88
2021/03/02 01:24:26;;;;;;;20.42;12.65;;;;;;;;;;5079056;28;20143;-89
2021/03/02 01:26:52;;;;;;;16.17;11.75;;;;;;;;;;5079365;28;20031;-89
2021/03/02 01:29:18;;;;;;;16.95;10.50;;;;;;;;;;5079895;28;20028;-87
2021/03/02 01:31:44;;;;;;;16.80;11.10;;;;;;;;;;5079759;28;20032;-88
2021/03/02 01:34:10;;;;;;;18.52;11.95;;;;;;;;;;5079028;28;20032;-89
2021/03/02 01:36:36;;;;;;;17.75;10.10;;;;;;;;;;5079243;28;20069;-88
2021/03/02 01:39:03;;;;;;;15.55;11.48;;;;;;;;;;5097376;28;20442;-87
2021/03/02 01:41:29;;;;;;;16.55;10.88;;;;;;;;;;5096736;28;20047;-89
2021/03/02 01:43:55;;;;;;;18.55;12.10;;;;;;;;;;5079801;28;20431;-87
2021/03/02 01:46:21;;;;;;;16.27;10.95;;;;;;;;;;5079118;28;20038;-86
2021/03/02 01:48:47;;;;;;;15.88;11.35;;;;;;;;;;5079700;28;20034;-90
2021/03/02 01:51:13;;;;;;;16.75;10.98;;;;;;;;;;5092246;28;20051;-87
2021/03/02 01:53:39;;;;;;;16.30;11.38;;;;;;;;;;5084530;28;20052;-89
2021/03/02 01:56:06;;;;;;;15.02;11.50;;;;;;;;;;5076404;28;20024;-88
2021/03/02 01:58:32;;;;;;;15.90;10.95;;;;;;;;;;5085953;28;20089;-87
2021/03/02 02:00:59;;;;;;;13.80;10.48;;;;;;;;;;5066061;28;20373;-87
2021/03/02 02:03:35;;;;;;;14.00;10.52;;;;;;;;;;5088006;28;20055;-89
2021/03/02 02:06:04;;;;;;;16.40;10.63;;;;;;;;;;5079387;28;20118;-87
2021/03/02 02:08:54;;;;;;;16.60;10.73;;;;;;;;;;5079250;28;20035;-89
2021/03/02 02:11:33;;;;;;;16.88;10.40;;;;;;;;;;5051579;28;20040;-87
2021/03/02 02:14:05;;;;;;;14.95;10.18;;;;;;;;;;5069997;28;20036;-90
2021/03/02 02:16:34;;;;;;;16.75;10.55;;;;;;;;;;5090989;28;20304;-89
2021/03/02 02:19:02;;;;;;;17.75;11.45;;;;;;;;;;5096944;28;20064;-88
2021/03/02 02:21:37;;;;;;;16.48;10.70;;;;;;;;;;5081273;28;20089;-86
2021/03/02 02:24:22;;;;;;;18.58;10.50;;;;;;;;;;5077117;28;20057;-87
2021/03/02 02:26:58;;;;;;;18.38;11.90;;;;;;;;;;5099685;28;20032;-88
2021/03/02 02:29:27;;;;;;;15.35;10.63;;;;;;;;;;5099229;28;20039;-88
2021/03/02 02:31:54;;;;;;;18.27;11.93;;;;;;;;;;5099176;28;20032;-89
2021/03/02 02:34:21;;;;;;;19.40;11.88;;;;;;;;;;5099597;28;20035;-88
2021/03/02 02:36:51;;;;;;;15.23;11.82;;;;;;;;;;5100115;28;20039;-87
2021/03/02 02:39:18;;;;;;;15.77;11.90;;;;;;;;;;5100207;28;20039;-86
2021/03/02 02:41:45;;;;;;;16.50;11.05;;;;;;;;;;5091123;28;20050;-87
2021/03/02 02:44:12;;;;;;;17.48;11.75;;;;;;;;;;5095231;28;20020;-87
2021/03/02 02:46:39;;;;;;;14.82;11.15;;;;;;;;;;5069529;28;20337;-88
2021/03/02 02:49:06;;;;;;;16.25;11.15;;;;;;;;;;5091162;28;20028;-86
2021/03/02 02:51:32;;;;;;;16.88;10.63;;;;;;;;;;5099432;28;20036;-89
2021/03/02 02:53:59;;;;;;;16.27;11.65;;;;;;;;;;5084095;28;20028;-88
2021/03/02 02:56:26;;;;;;;14.82;11.43;;;;;;;;;;5083291;28;20028;-89
2021/03/02 02:59:11;;;;;;;16.67;11.80;;;;;;;;;;5079328;28;20096;-88
2021/03/02 03:01:45;;;;;;;17.63;12.82;;;;;;;;;;5079457;28;20051;-88
2021/03/02 03:04:12;;;;;;;16.55;11.82;;;;;;;;;;5080676;28;20051;-90
2021/03/02 03:06:40;;;;;;;18.27;11.57;;;;;;;;;;5090056;28;20058;-89
2021/03/02 03:09:06;;;;;;;15.63;11.38;;;;;;;;;;5099307;28;20028;-87
2021/03/02 03:11:35;;;;;;;16.63;11.40;;;;;;;;;;5099259;28;20028;-87
2021/03/02 03:14:02;;;;;;;18.70;11.18;;;;;;;;;;5087043;28;20150;-86
2021/03/02 03:16:28;;;;;;;16.27;11.82;;;;;;;;;;5099800;28;20086;-89
2021/03/02 03:18:57;;;;;;;15.90;11.25;;;;;;;;;;5099529;28;20047;-88
2021/03/02 03:21:23;;;;;;;16.33;11.75;;;;;;;;;;5082191;28;20040;-88
2021/03/02 03:23:50;;;;;;;16.13;10.85;;;;;;;;;;5075459;28;20024;-89
2021/03/02 03:26:18;;;;;;;13.55;10.65;;;;;;;;;;5079821;28;20052;-87
2021/03/02 03:28:45;;;;;;;17.80;13.15;;;;;;;;;;5080054;28;20466;-86
2021/03/02 03:31:12;;;;;;;15.88;11.55;;;;;;;;;;5078386;28;20028;-87
2021/03/02 03:33:52;;;;;;;18.63;11.65;;;;;;;;;;5084778;28;20123;-87
2021/03/02 03:36:18;;;;;;;15.60;11.48;;;;;;;;;;5100495;28;20036;-88
2021/03/02 03:38:44;;;;;;;15.27;11.50;;;;;;;;;;5099814;28;20031;-87
2021/03/02 03:41:10;;;;;;;16.63;11.77;;;;;;;;;;5099992;28;20043;-88
2021/03/02 03:43:36;;;;;;;17.63;11.85;;;;;;;;;;5102175;28;20024;-89
2021/03/02 03:46:02;;;;;;;16.95;11.77;;;;;;;;;;5109030;27;20016;-87
2021/03/02 03:48:28;;;;;;;16.02;11.63;;;;;;;;;;5101620;28;20070;-87
2021/03/02 03:50:54;;;;;;;14.15;10.15;;;;;;;;;;5119182;27;20021;-90
2021/03/02 03:53:21;;;;;;;16.65;11.35;;;;;;;;;;5101840;27;20012;-86
2021/03/02 03:55:49;;;;;;;16.02;11.55;;;;;;;;;;5118942;27;20039;-88
2021/03/02 03:58:20;;;;;;;14.95;11.32;;;;;;;;;;5101796;28;20024;-90
2021/03/02 04:00:49;;;;;;;16.88;10.75;;;;;;;;;;5100696;27;20088;-88
2021/03/02 04:03:15;;;;;;;14.90;11.23;;;;;;;;;;5118617;27;20020;-87
2021/03/02 04:05:41;;;;;;;15.00;11.07;;;;;;;;;;5101554;28;20024;-86
2021/03/02 04:08:08;;;;;;;14.25;11.35;;;;;;;;;;5101058;27;20024;-85
2021/03/02 04:10:34;;;;;;;16.30;10.80;;;;;;;;;;5116875;27;20012;-86
2021/03/02 04:13:08;;;;;;;16.52;12.07;;;;;;;;;;5109877;27;20036;-87
2021/03/02 04:15:34;;;;;;;14.55;11.32;;;;;;;;;;5110084;28;20036;-86
2021/03/02 04:18:00;;;;;;;17.33;11.40;;;;;;;;;;5117505;27;20032;-86
2021/03/02 04:20:26;;;;;;;17.45;11.00;;;;;;;;;;5106201;28;20033;-87
2021/03/02 04:22:55;;;;;;;14.40;10.55;;;;;;;;;;5108450;28;20032;-87
2021/03/02 04:25:21;;;;;;;16.67;11.63;;;;;;;;;;5110645;28;20038;-88
2021/03/02 04:27:47;;;;;;;19.65;10.82;;;;;;;;;;5096313;28;20351;-86
2021/03/02 04:30:14;;;;;;;16.08;10.93;;;;;;;;;;5096386;28;20048;-86
2021/03/02 04:32:40;;;;;;;16.58;10.35;;;;;;;;;;5092346;28;20024;-87
2021/03/02 04:35:06;;;;;;;19.60;11.25;;;;;;;;;;5081612;28;20031;-87
2021/03/02 04:37:32;;;;;;;15.73;11.98;;;;;;;;;;5101654;28;20024;-88
2021/03/02 04:39:59;;;;;;;16.10;10.57;;;;;;;;;;5084256;28;20040;-87
2021/03/02 04:42:25;;;;;;;16.90;11.77;;;;;;;;;;5095032;28;20020;-88
2021/03/02 04:44:51;;;;;;;15.82;11.20;;;;;;;;;;5064086;28;20039;-86
2021/03/02 04:47:17;;;;;;;15.50;10.77;;;;;;;;;;5080947;28;20398;-87
2021/03/02 04:49:43;;;;;;;18.27;11.25;;;;;;;;;;5065956;28;20139;-88
2021/03/02 04:52:09;;;;;;;16.00;11.15;;;;;;;;;;5080343;28;20073;-88
2021/03/02 04:54:35;;;;;;;14.93;10.38;;;;;;;;;;5080200;28;20028;-90
2021/03/02 04:57:01;;;;;;;14.02;10.10;;;;;;;;;;5080499;28;20020;-89
2021/03/02 04:59:27;;;;;;;16.55;11.38;;;;;;;;;;5097668;28;20405;-88
2021/03/02 05:01:54;;;;;;;16.45;11.00;;;;;;;;;;5098136;28;20043;-88
2021/03/02 05:04:20;;;;;;;14.75;10.73;;;;;;;;;;5096531;28;20051;-88
2021/03/02 05:06:46;;;;;;;14.57;10.75;;;;;;;;;;5072379;28;20027;-88
2021/03/02 05:09:12;;;;;;;15.70;11.02;;;;;;;;;;5079637;28;20028;-87
2021/03/02 05:11:38;;;;;;;14.63;10.80;;;;;;;;;;5094856;28;20114;-86
2021/03/02 05:14:04;;;;;;;15.65;10.38;;;;;;;;;;5080568;28;20033;-87
2021/03/02 05:16:30;;;;;;;13.82;9.95;;;;;;;;;;5076922;28;20383;-87
2021/03/02 05:18:56;;;;;;;14.88;11.13;;;;;;;;;;5089554;28;20032;-88
2021/03/02 05:21:22;;;;;;;16.58;10.50;;;;;;;;;;5078529;28;20094;-87
2021/03/02 05:23:48;;;;;;;14.63;10.30;;;;;;;;;;5087108;28;20062;-89
2021/03/02 05:26:14;;;;;;;14.95;10.40;;;;;;;;;;5068593;28;20028;-87
2021/03/02 05:28:41;;;;;;;14.27;10.75;;;;;;;;;;5085657;28;20027;-87
2021/03/02 05:31:07;;;;;;;16.30;10.57;;;;;;;;;;5096838;28;20039;-89
2021/03/02 05:33:33;;;;;;;15.15;10.50;;;;;;;;;;5096764;28;20027;-86
2021/03/02 05:35:59;;;;;;;16.08;10.85;;;;;;;;;;5079303;28;20032;-87
2021/03/02 05:38:25;;;;;;;12.52;9.65;;;;;;;;;;5078807;28;20028;-87
2021/03/02 05:40:53;;;;;;;14.63;11.05;;;;;;;;;;5096568;28;20028;-86
2021/03/02 05:43:19;;;;;;;15.50;10.07;;;;;;;;;;5085701;28;20028;-87
2021/03/02 05:45:45;;;;;;;15.48;11.50;;;;;;;;;;5089113;28;20069;-89
2021/03/02 05:48:24;;;;;;;15.70;11.00;;;;;;;;;;5091249;28;20283;-88
2021/03/02 05:50:55;;;;;;;14.38;10.07;;;;;;;;;;5087920;28;20033;-87
2021/03/02 05:53:21;;;;;;;15.35;10.82;;;;;;;;;;5085384;28;20032;-86
2021/03/02 05:55:48;;;;;;;14.07;10.00;;;;;;;;;;5092507;28;20050;-88
2021/03/02 05:58:17;;;;;;;16.15;10.93;;;;;;;;;;5088295;28;20419;-88
2021/03/02 06:00:43;;;;;;;14.13;10.40;;;;;;;;;;5092891;28;20036;-88
2021/03/02 06:03:10;;;;;;;13.63;10.02;;;;;;;;;;5074896;28;20036;-87
2021/03/02 06:05:37;;;;;;;15.98;11.30;;;;;;;;;;5091885;28;20112;-88
2021/03/02 06:08:07;;;;;;;15.38;11.32;;;;;;;;;;5087719;28;20107;-88
2021/03/02 06:10:34;;;;;;;18.63;12.55;;;;;;;;;;5093278;28;20024;-87
2021/03/02 06:13:00;;;;;;;14.10;9.75;;;;;;;;;;5071945;28;20032;-87
2021/03/02 06:15:28;;;;;;;14.23;10.05;;;;;;;;;;5083425;28;20097;-89
2021/03/02 06:18:10;;;;;;;18.33;11.93;;;;;;;;;;5076398;28;20057;-87
2021/03/02 06:20:37;;;;;;;14.68;9.98;;;;;;;;;;5092596;28;20036;-89
2021/03/02 06:23:19;;;;;;;12.02;9.45;;;;;;;;;;5079112;28;20032;-88
2021/03/02 06:25:45;;;;;;;18.23;11.05;;;;;;;;;;5089749;28;20036;-87
2021/03/02 06:28:11;;;;;;;15.85;10.35;;;;;;;;;;5091669;28;20412;-86
2021/03/02 06:30:38;;;;;;;12.50;9.25;;;;;;;;;;5090429;28;20023;-88
2021/03/02 06:33:04;;;;;;;13.95;10.27;;;;;;;;;;5083816;28;20035;-88
2021/03/02 06:35:32;;;;;;;15.95;10.98;;;;;;;;;;5089926;28;20039;-88
2021/03/02 06:37:58;;;;;;;15.02;11.38;;;;;;;;;;5094233;28;20111;-87
2021/03/02 06:40:39;;;;;;;16.30;10.70;;;;;;;;;;5079119;28;20031;-89
2021/03/02 06:43:06;;;;;;;14.18;10.32;;;;;;;;;;5091521;28;20078;-87
2021/03/02 06:45:32;;;;;;;16.60;11.05;;;;;;;;;;5095330;28;20020;-88
2021/03/02 06:48:07;;;;;;;14.30;10.15;;;;;;;;;;5094222;28;20077;-86
2021/03/02 06:50:39;;;;;;;21.10;11.77;;;;;;;;;;5087801;28;20070;-87
2021/03/02 06:53:09;;;;;;;14.43;11.45;;;;;;;;;;5087515;28;20029;-86
2021/03/02 06:55:37;;;;;;;14.88;11.07;;;;;;;;;;5090349;28;20028;-89
2021/03/02 06:58:22;;;;;;;17.20;10.35;;;;;;;;;;5091492;28;20024;-86
2021/03/02 07:00:52;;;;;;;15.25;10.93;;;;;;;;;;5074947;28;20035;-86
2021/03/02 07:03:29;;;;;;;17.02;11.32;;;;;;;;;;5091144;28;20037;-87
2021/03/02 07:05:57;;;;;;;13.95;11.13;;;;;;;;;;5089996;28;20127;-86
2021/03/02 07:08:23;;;;;;;14.23;10.15;;;;;;;;;;5078680;28;20114;-87
2021/03/02 07:10:53;;;;;;;15.50;11.05;;;;;;;;;;5080927;28;20032;-87
2021/03/02 07:13:20;;;;;;;14.40;10.25;;;;;;;;;;5077415;28;20035;-87
2021/03/02 07:15:47;;;;;;;15.68;10.88;;;;;;;;;;5092432;28;20027;-87
2021/03/02 07:18:17;;;;;;;16.13;11.80;;;;;;;;;;5076230;28;20047;-88
2021/03/02 07:20:50;;;;;;;14.68;10.63;;;;;;;;;;5098159;28;20077;-87
2021/03/02 07:23:30;;;;;;;21.50;10.48;;;;;;;;;;5074980;28;20077;-88
2021/03/02 07:26:03;;;;;;;13.40;10.27;;;;;;;;;;5074108;28;20470;-86
2021/03/02 07:28:33;;;;;;;15.82;9.75;;;;;;;;;;5092187;28;20063;-87
2021/03/02 07:30:59;;;;;;;14.32;9.68;;;;;;;;;;5077639;28;20449;-87
2021/03/02 07:33:28;;;;;;;13.48;10.02;;;;;;;;;;5079943;28;20050;-86
2021/03/02 07:35:57;;;;;;;13.98;10.32;;;;;;;;;;5093457;28;20032;-87
2021/03/02 07:38:27;;;;;;;14.52;10.30;;;;;;;;;;5088185;28;20035;-87
2021/03/02 07:40:56;;;;;;;13.27;10.45;;;;;;;;;;5094416;28;20036;-87
2021/03/02 07:43:22;;;;;;;;;;;;;;;;;;5088851;28;20051;-87
2021/03/02 07:45:59;;;;;;;13.82;10.15;;;;;;;;;;5097591;28;20005;-87
2021/03/02 07:48:25;;;;;;;14.57;9.48;;;;;;;;;;5076200;28;20032;-86
2021/03/02 07:51:26;;;;;;;13.38;9.70;;;;;;;;;;5083518;28;20032;-86
2021/03/02 07:54:12;;;;;;;14.45;9.40;;;;;;;;;;4978356;28;20038;-87
2021/03/02 07:56:39;;;;;;;12.25;9.70;;;;;;;;;;5096033;28;20040;-86
2021/03/02 07:59:05;;;;;;;14.32;9.82;;;;;;;;;;5098804;28;20110;-86
2021/03/02 08:01:32;;;;;;;14.25;9.30;;;;;;;;;;5083720;28;20115;-87
2021/03/02 08:04:24;;;;;;;11.68;8.65;;;;;;;;;;5088179;28;20093;-86
2021/03/02 08:06:50;;;;;;;12.60;8.98;;;;;;;;;;5100820;28;20043;-87
2021/03/02 08:09:26;;;;;;;10.88;8.52;;;;;;;;;;5084939;28;20051;-87
2021/03/02 08:11:55;;;;;;;11.30;8.65;;;;;;;;;;5083535;28;20039;-87
2021/03/02 08:14:29;;;;;;;11.30;8.68;;;;;;;;;;5099726;28;20054;-84
2021/03/02 08:17:01;;;;;;;11.18;7.90;;;;;;;;;;5099818;28;20084;-86
2021/03/02 08:19:57;;;;;;;12.57;8.52;;;;;;;;;;5098395;28;20024;-86
2021/03/02 08:22:25;;;;;;;9.65;8.05;;;;;;;;;;5059292;28;20051;-88
2021/03/02 08:24:59;;;;;;;10.48;7.97;;;;;;;;;;5079060;28;20040;-87
2021/03/02 08:27:38;;;;;;;8.68;7.55;;;;;;;;;;5088166;28;20059;-87
2021/03/02 08:30:04;;;;;;;;;;;;;;;;;;5091280;28;20032;-88
2021/03/02 08:32:30;;;;;;;10.35;7.22;;;;;;;;;;5092937;28;19924;-87
2021/03/02 08:35:02;;;;;;;9.43;7.55;;;;;;;;;;5093278;28;20028;-87
2021/03/02 08:37:47;;;;;;;13.32;9.43;;;;;;;;;;5079587;28;20035;-88
2021/03/02 08:40:15;;;;;;;10.75;8.30;;;;;;;;;;5095297;28;20138;-86
2021/03/02 08:43:00;;;;;;;12.80;8.55;;;;;;;;;;5080502;28;20398;-87
2021/03/02 08:45:26;;;;;;;14.73;7.80;;;;;;;;;;5091647;28;20047;-87
2021/03/02 08:47:52;;;;;;;12.70;7.60;;;;;;;;;;5076428;28;20027;-87
2021/03/02 08:50:35;;;;;;;10.55;7.75;;;;;;;;;;5079473;28;20036;-89
2021/03/02 08:53:01;;;;;;;9.05;7.60;;;;;;;;;;5078355;28;20078;-87
2021/03/02 08:55:39;;;;;;;11.30;7.20;;;;;;;;;;5076031;28;20047;-86
2021/03/02 08:58:06;;;;;;;12.65;7.15;;;;;;;;;;5091187;28;20038;-86
2021/03/02 09:00:34;;;;;;;9.00;6.60;;;;;;;;;;5079116;28;20072;-87
2021/03/02 09:03:00;;;;;;;9.27;6.97;;;;;;;;;;5092714;28;20020;-87
2021/03/02 09:05:26;;;;;;;9.30;7.28;;;;;;;;;;5077786;28;20319;-86
2021/03/02 09:08:05;;;;;;;8.35;6.68;;;;;;;;;;5077459;28;20431;-86
2021/03/02 09:10:31;;;;;;;9.47;7.30;;;;;;;;;;5079770;28;20032;-87
2021/03/02 09:13:00;;;;;;;9.48;7.22;;;;;;;;;;5080741;28;20027;-87
2021/03/02 09:15:36;;;;;;;8.70;6.53;;;;;;;;;;5078629;28;20800;-87
2021/03/02 09:18:15;;;;;;;10.48;7.28;;;;;;;;;;5088713;28;20035;-87
2021/03/02 09:20:48;;;;;;;10.70;7.32;;;;;;;;;;5088454;28;20060;-88
2021/03/02 09:23:15;;;;;;;7.82;6.00;;;;;;;;;;5084750;28;20024;-87
2021/03/02 09:25:41;;;;;;;8.88;5.90;;;;;;;;;;5072392;28;20032;-86
2021/03/02 09:28:14;;;;;;;10.85;6.45;;;;;;;;;;5074160;28;20123;-86
2021/03/02 09:30:41;;;;;;;7.80;6.70;;;;;;;;;;5072626;28;20028;-87
2021/03/02 09:33:08;;;;;;;10.35;6.78;;;;;;;;;;5083714;28;20029;-90
2021/03/02 09:35:34;;;;;;;13.60;7.25;;;;;;;;;;5073297;28;20028;-85
2021/03/02 09:38:00;;;;;;;7.85;6.38;;;;;;;;;;5074481;28;20028;-88
2021/03/02 09:40:27;;;;;;;10.52;6.28;;;;;;;;;;5066940;28;20036;-86
2021/03/02 09:42:58;;;;;;;11.93;6.22;;;;;;;;;;5074591;28;20202;-86
2021/03/02 09:45:24;;;;;;;10.23;6.18;;;;;;;;;;5092781;28;20020;-86
2021/03/02 09:47:58;;;;;;;9.30;6.97;;;;;;;;;;5091204;28;20504;-87
2021/03/02 09:50:25;;;;;;;10.20;6.80;;;;;;;;;;5074731;28;20038;-88
2021/03/02 09:52:55;;;;;;;9.65;5.70;;;;;;;;;;5075637;28;20036;-87
2021/03/02 09:55:32;;;;;;;11.13;6.90;;;;;;;;;;5097094;28;20024;-87
2021/03/02 10:00:38;;;;;;;9.00;6.20;;;;;;;;;;5100344;28;20054;-86
2021/03/02 10:03:06;;;;;;;9.80;6.25;;;;;;;;;;5094954;28;20031;-86
2021/03/02 10:05:33;;;;;;;8.52;5.65;;;;;;;;;;5098047;28;20071;-88
2021/03/02 10:07:59;;;;;;;11.48;6.43;;;;;;;;;;5098181;28;20028;-85
2021/03/02 10:10:41;;;;;;;14.20;6.80;;;;;;;;;;5074608;28;20366;-88
2021/03/02 10:13:07;;;;;;;8.70;5.93;;;;;;;;;;5096121;28;20028;-87
2021/03/02 10:15:33;;;;;;;9.57;6.07;;;;;;;;;;5097601;28;20045;-86
2021/03/02 10:18:00;;;;;;;10.30;6.32;;;;;;;;;;5099003;28;20035;-86
2021/03/02 10:20:27;;;;;;;14.38;6.75;;;;;;;;;;5081261;28;20043;-88
2021/03/02 10:23:04;;;;;;;7.85;5.85;;;;;;;;;;5076418;28;20028;-89
2021/03/02 10:25:40;;;;;;;11.13;6.13;;;;;;;;;;5079867;28;20035;-88
2021/03/02 10:28:06;;;;;;;9.07;6.10;;;;;;;;;;5097470;28;20039;-87
2021/03/02 10:30:32;;;;;;;12.23;6.70;;;;;;;;;;5079556;28;20423;-87
2021/03/02 10:32:58;;;;;;;7.50;6.00;;;;;;;;;;5084515;28;20035;-87
2021/03/02 10:35:24;;;;;;;9.07;6.38;;;;;;;;;;5068394;28;20054;-89
2021/03/02 10:37:50;;;;;;;14.00;8.15;;;;;;;;;;5095512;28;20509;-88
2021/03/02 10:40:17;;;;;;;9.82;6.28;;;;;;;;;;5078575;28;20135;-88
2021/03/02 10:42:43;;;;;;;12.43;6.53;;;;;;;;;;5097425;28;21243;-88
2021/03/02 10:45:12;;;;;;;10.52;6.63;;;;;;;;;;5100808;28;20078;-85
2021/03/02 10:47:38;;;;;;;11.95;6.22;;;;;;;;;;5098021;28;20027;-89
2021/03/02 10:50:05;;;;;;;13.80;6.82;;;;;;;;;;5083709;28;20503;-86
2021/03/02 10:52:31;;;;;;;12.05;7.55;;;;;;;;;;5082785;28;20031;-88
2021/03/02 10:54:57;;;;;;;10.57;6.20;;;;;;;;;;5080446;28;20035;-87
2021/03/02 10:57:23;;;;;;;11.95;6.18;;;;;;;;;;5084117;28;20093;-88
2021/03/02 10:59:50;;;;;;;7.65;5.95;;;;;;;;;;5085296;28;20063;-85
2021/03/02 11:02:17;;;;;;;9.73;7.07;;;;;;;;;;5095070;28;20355;-89
2021/03/02 11:04:44;;;;;;;10.95;6.25;;;;;;;;;;5096531;28;20024;-86
2021/03/02 11:07:13;;;;;;;12.32;6.25;;;;;;;;;;5085068;28;20115;-88
2021/03/02 11:09:39;;;;;;;11.07;6.90;;;;;;;;;;5084583;28;20036;-86
2021/03/02 11:12:05;;;;;;;9.90;6.65;;;;;;;;;;5093438;28;20016;-87
2021/03/02 11:14:32;;;;;;;10.98;5.32;;;;;;;;;;5077842;28;20462;-84
2021/03/02 11:16:58;;;;;;;7.55;5.38;;;;;;;;;;5093424;28;20052;-87
2021/03/02 11:19:34;;;;;;;8.05;4.93;;;;;;;;;;5072785;28;20131;-87
2021/03/02 11:22:00;;;;;;;9.02;5.78;;;;;;;;;;5075879;28;20052;-89
2021/03/02 11:24:26;;;;;;;8.00;5.68;;;;;;;;;;5083589;28;20434;-89
2021/03/02 11:26:52;;;;;;;12.13;6.63;;;;;;;;;;5097513;28;20028;-90
2021/03/02 11:29:18;;;;;;;7.40;5.07;;;;;;;;;;5078813;28;20077;-88
2021/03/02 11:31:44;;;;;;;9.65;5.07;;;;;;;;;;5080562;28;20077;-88
2021/03/02 11:34:11;;;;;;;9.52;6.40;;;;;;;;;;5076924;28;20442;-90
2021/03/02 11:36:37;;;;;;;8.07;5.03;;;;;;;;;;5081165;28;20075;-90
2021/03/02 11:39:04;;;;;;;8.02;6.00;;;;;;;;;;5081674;28;20122;-89
2021/03/02 11:41:34;;;;;;;10.93;5.55;;;;;;;;;;5078725;28;20059;-89
2021/03/02 11:44:04;;;;;;;7.00;4.85;;;;;;;;;;5079700;28;20032;-87
2021/03/02 11:46:30;;;;;;;8.32;4.07;;;;;;;;;;5095188;28;20024;-88
2021/03/02 11:48:56;;;;;;;8.43;4.25;;;;;;;;;;5073980;28;20297;-85
2021/03/02 11:51:22;;;;;;;5.82;4.43;;;;;;;;;;5079828;28;20035;-88
2021/03/02 11:53:48;;;;;;;5.57;3.40;;;;;;;;;;5100810;28;20119;-87
2021/03/02 11:56:14;;;;;;;7.00;3.60;;;;;;;;;;5081131;28;20439;-87
2021/03/02 11:58:40;;;;;;;5.40;3.50;;;;;;;;;;5080328;28;20331;-84
2021/03/02 12:01:06;;;;;;;6.55;3.05;;;;;;;;;;5078913;28;20165;-90
2021/03/02 12:03:32;;;;;;;6.03;4.32;;;;;;;;;;5078961;28;20031;-87
2021/03/02 12:05:58;;;;;;;7.78;3.03;;;;;;;;;;5079894;28;20028;-85
2021/03/02 12:08:25;;;;;;;5.47;3.95;;;;;;;;;;5095398;28;20034;-87
2021/03/02 12:10:51;;;;;;;4.80;3.70;;;;;;;;;;5080384;28;20031;-86
2021/03/02 12:13:18;;;;;;;6.30;4.03;;;;;;;;;;5080982;28;20035;-87
2021/03/02 12:15:45;;;;;;;5.13;3.25;;;;;;;;;;5100355;28;20619;-85
2021/03/02 12:18:11;;;;;;;5.75;3.38;;;;;;;;;;5100251;28;20035;-86
2021/03/02 12:20:39;;;;;;;7.43;3.30;;;;;;;;;;5085687;28;20031;-86
2021/03/02 12:23:06;;;;;;;3.47;3.10;;;;;;;;;;5079462;28;20093;-86
2021/03/02 12:25:32;;;;;;;4.72;3.30;;;;;;;;;;5076163;28;20059;-88
2021/03/02 12:27:58;;;;;;;4.60;3.30;;;;;;;;;;5082309;28;20063;-88
2021/03/02 12:30:25;;;;;;;4.40;3.10;;;;;;;;;;5092519;28;20030;-88
2021/03/02 12:32:51;;;;;;;4.32;2.83;;;;;;;;;;5094341;28;20020;-87
2021/03/02 12:35:17;;;;;;;6.63;3.03;;;;;;;;;;5092736;28;20020;-85
2021/03/02 12:37:47;;;;;;;5.38;2.85;;;;;;;;;;5088728;28;20028;-83
2021/03/02 12:40:17;;;;;;;3.60;2.80;;;;;;;;;;5098023;28;20051;-86
2021/03/02 12:42:43;;;;;;;5.10;2.78;;;;;;;;;;5082496;28;20111;-87
2021/03/02 12:45:10;;;;;;;3.88;3.20;;;;;;;;;;5086051;28;20040;-87
2021/03/02 12:47:36;;;;;;;4.38;3.15;;;;;;;;;;5104272;28;20046;-86
2021/03/02 12:50:08;;;;;;;4.72;3.00;;;;;;;;;;5093454;28;20143;-84
2021/03/02 12:52:38;;;;;;;3.72;2.88;;;;;;;;;;5079880;28;20028;-90
2021/03/02 12:55:05;;;;;;;8.25;2.55;;;;;;;;;;5094972;28;20038;-86
2021/03/02 12:57:31;;;;;;;3.05;2.75;;;;;;;;;;5092090;28;20020;-84
2021/03/02 13:00:00;;;;;;;6.57;3.00;;;;;;;;;;5084275;28;20043;-87
2021/03/02 13:02:26;;;;;;;;;;;;;;;;;;5093345;28;20039;-86
2021/03/02 13:04:53;;;;;;;4.78;2.80;;;;;;;;;;5095709;28;20227;-85
2021/03/02 13:07:19;;;;;;;6.15;2.58;;;;;;;;;;5076520;28;20103;-87
2021/03/02 13:09:46;;;;;;;4.25;3.00;;;;;;;;;;5076906;28;20056;-87
2021/03/02 13:12:12;;;;;;;6.03;3.22;;;;;;;;;;5077595;28;20301;-83
2021/03/02 13:14:40;;;;;;;3.33;2.70;;;;;;;;;;5091111;28;20169;-87
2021/03/02 13:17:06;;;;;;;5.43;3.03;;;;;;;;;;5091346;28;20125;-89
2021/03/02 13:19:36;;;;;;;7.05;2.65;;;;;;;;;;5097886;28;20130;-88
2021/03/02 13:22:06;;;;;;;6.82;3.75;;;;;;;;;;5077890;28;20054;-87
2021/03/02 13:24:32;;;;;;;4.53;3.10;;;;;;;;;;5078989;28;20116;-86
2021/03/02 13:26:59;;;;;;;4.05;3.33;;;;;;;;;;5079043;28;20035;-85
2021/03/02 13:29:26;;;;;;;4.57;2.45;;;;;;;;;;5078811;28;20073;-87
2021/03/02 13:31:54;;;;;;;3.92;3.22;;;;;;;;;;5078575;28;20028;-86
2021/03/02 13:34:20;;;;;;;3.58;2.80;;;;;;;;;;5078559;28;20036;-86
2021/03/02 13:36:48;;;;;;;7.95;2.97;;;;;;;;;;5076453;28;20035;-85
2021/03/02 13:39:16;;;;;;;2.97;2.63;;;;;;;;;;5091173;28;20028;-89
2021/03/02 13:41:50;;;;;;;5.30;2.90;;;;;;;;;;5076418;28;20064;-89
2021/03/02 13:44:24;;;;;;;3.55;2.60;;;;;;;;;;5087334;28;20047;-86
2021/03/02 13:46:52;;;;;;;3.92;2.25;;;;;;;;;;5074479;28;20106;-85
2021/03/02 13:49:18;;;;;;;6.07;2.85;;;;;;;;;;5088461;28;20145;-86
2021/03/02 13:51:45;;;;;;;3.25;2.53;;;;;;;;;;5088223;28;20043;-84
2021/03/02 13:54:13;;;;;;;4.63;3.13;;;;;;;;;;5108045;28;20028;-85
2021/03/02 13:56:40;;;;;;;4.75;2.30;;;;;;;;;;5114214;27;20099;-86
2021/03/02 13:59:06;;;;;;;5.88;3.00;;;;;;;;;;5091113;28;20023;-85
2021/03/02 14:01:36;;;;;;;3.35;2.28;;;;;;;;;;5097017;28;20085;-86
2021/03/02 14:04:03;;;;;;;3.08;2.63;;;;;;;;;;5114412;27;20040;-86
2021/03/02 14:06:30;;;;;;;8.18;3.47;;;;;;;;;;5095165;28;20038;-87
2021/03/02 14:08:56;;;;;;;6.40;2.80;;;;;;;;;;5081299;28;20038;-86
2021/03/02 14:11:23;;;;;;;4.90;3.15;;;;;;;;;;5100237;28;20031;-89
2021/03/02 14:13:56;;;;;;;3.75;2.60;;;;;;;;;;5083536;28;20032;-89
2021/03/02 14:16:23;;;;;;;3.58;2.88;;;;;;;;;;5087388;28;20028;-89
2021/03/02 14:18:50;;;;;;;3.60;2.60;;;;;;;;;;5077523;28;20084;-85
2021/03/02 14:21:16;;;;;;;5.68;2.95;;;;;;;;;;5095190;28;20122;-87
2021/03/02 14:23:43;;;;;;;3.65;2.83;;;;;;;;;;5091661;28;20393;-86
2021/03/02 14:26:10;;;;;;;3.92;2.65;;;;;;;;;;5075865;28;20430;-86
2021/03/02 14:28:36;;;;;;;4.22;2.67;;;;;;;;;;5077642;28;20035;-83
2021/03/02 14:31:03;;;;;;;5.57;3.25;;;;;;;;;;5077881;28;20050;-85
2021/03/02 14:33:29;;;;;;;6.18;3.25;;;;;;;;;;5096819;28;20028;-85
2021/03/02 14:35:57;;;;;;;3.67;2.70;;;;;;;;;;5077748;28;20209;-87
2021/03/02 14:38:25;;;;;;;6.30;3.20;;;;;;;;;;5067270;28;20032;-90